Time;durP1;ratioP1;P1;durP2;ratioP2;P2;SDS_P1;SDS_P2;PMS_P1;PMS_P2;Temp;Humidity;BMP_temperature;BMP_pressure;BME280_temperature;BME280_humidity;BME280_pressure;Samples;Min_cycle;Max_cycle;Signal;HPM_P1;HPM_P2
2021/08/28 00:02:05;;;;;;;7.20;3.60;;;;;;;;;;5054147;28;20040;-75
2021/08/28 00:04:33;;;;;;;12.52;5.25;;;;;;;;;;5054536;28;20389;-77
2021/08/28 00:06:58;;;;;;;10.70;4.75;;;;;;;;;;5054637;28;20023;-76
2021/08/28 00:09:23;;;;;;;8.00;4.30;;;;;;;;;;5054119;28;20029;-76
2021/08/28 00:11:49;;;;;;;7.57;4.38;;;;;;;;;;5054438;28;20040;-75
2021/08/28 00:14:14;;;;;;;13.85;4.63;;;;;;;;;;5054287;28;20104;-75
2021/08/28 00:16:39;;;;;;;8.65;4.40;;;;;;;;;;5054194;28;20021;-75
2021/08/28 00:19:04;;;;;;;9.05;4.05;;;;;;;;;;5054253;28;20065;-75
2021/08/28 00:21:30;;;;;;;8.90;3.92;;;;;;;;;;5054279;28;20009;-75
2021/08/28 00:23:55;;;;;;;8.93;4.57;;;;;;;;;;5054184;28;20457;-76
2021/08/28 00:26:20;;;;;;;7.32;4.45;;;;;;;;;;5052933;28;20028;-75
2021/08/28 00:28:46;;;;;;;12.15;4.20;;;;;;;;;;5052827;28;20067;-76
2021/08/28 00:31:11;;;;;;;12.18;4.32;;;;;;;;;;5053545;28;20041;-75
2021/08/28 00:33:36;;;;;;;11.32;4.55;;;;;;;;;;5053000;28;20048;-76
2021/08/28 00:36:01;;;;;;;10.55;4.97;;;;;;;;;;5053301;28;20021;-75
2021/08/28 00:38:27;;;;;;;9.68;4.57;;;;;;;;;;5053959;28;20354;-75
2021/08/28 00:40:52;;;;;;;9.98;5.18;;;;;;;;;;5053281;28;20048;-75
2021/08/28 00:43:17;;;;;;;9.90;4.80;;;;;;;;;;5053857;28;20017;-75
2021/08/28 00:45:43;;;;;;;13.07;5.22;;;;;;;;;;5053779;28;20036;-75
2021/08/28 00:48:10;;;;;;;15.63;5.35;;;;;;;;;;5053659;28;20043;-75
2021/08/28 00:50:36;;;;;;;15.65;5.68;;;;;;;;;;5053830;28;20029;-76
2021/08/28 00:53:02;;;;;;;13.48;5.95;;;;;;;;;;5053613;28;20048;-78
2021/08/28 00:55:29;;;;;;;10.40;5.60;;;;;;;;;;5053273;28;20083;-75
2021/08/28 00:57:55;;;;;;;13.80;5.90;;;;;;;;;;5053798;28;20025;-75
2021/08/28 01:00:21;;;;;;;13.43;5.35;;;;;;;;;;5053657;28;20370;-75
2021/08/28 01:02:47;;;;;;;15.63;6.30;;;;;;;;;;5053687;28;20111;-75
2021/08/28 01:05:12;;;;;;;19.00;6.55;;;;;;;;;;5053315;28;20450;-75
2021/08/28 01:07:46;;;;;;;16.30;6.38;;;;;;;;;;5053057;28;20040;-76
2021/08/28 01:10:13;;;;;;;18.10;7.47;;;;;;;;;;5053283;28;20037;-75
2021/08/28 01:12:42;;;;;;;16.25;6.35;;;;;;;;;;5053277;28;20115;-75
2021/08/28 01:15:09;;;;;;;13.43;6.43;;;;;;;;;;5053049;28;20538;-75
2021/08/28 01:17:36;;;;;;;16.42;6.80;;;;;;;;;;5053177;28;20098;-75
2021/08/28 01:20:05;;;;;;;18.88;7.28;;;;;;;;;;5053542;28;20032;-75
2021/08/28 01:22:31;;;;;;;27.45;7.30;;;;;;;;;;5053265;28;20037;-75
2021/08/28 01:24:56;;;;;;;17.13;7.20;;;;;;;;;;5053398;28;20035;-75
2021/08/28 01:27:40;;;;;;;23.73;7.78;;;;;;;;;;5053004;28;20036;-75
2021/08/28 01:30:06;;;;;;;20.10;7.57;;;;;;;;;;5052882;28;20025;-76
2021/08/28 01:32:32;;;;;;;21.40;7.53;;;;;;;;;;5035315;28;20049;-75
2021/08/28 01:34:58;;;;;;;19.13;7.32;;;;;;;;;;5035198;28;20041;-76
2021/08/28 01:37:24;;;;;;;26.63;8.65;;;;;;;;;;5048185;28;20385;-75
2021/08/28 01:39:50;;;;;;;19.73;7.40;;;;;;;;;;5053236;28;20025;-76
2021/08/28 01:42:15;;;;;;;19.25;7.28;;;;;;;;;;5052979;28;20028;-75
2021/08/28 01:44:48;;;;;;;20.17;7.55;;;;;;;;;;5034872;28;20468;-76
2021/08/28 01:47:14;;;;;;;24.17;8.38;;;;;;;;;;5052565;28;20060;-75
2021/08/28 01:49:40;;;;;;;20.33;7.65;;;;;;;;;;5052457;28;20036;-76
2021/08/28 01:52:06;;;;;;;16.10;6.88;;;;;;;;;;5052351;28;20044;-76
2021/08/28 01:54:31;;;;;;;24.25;8.65;;;;;;;;;;5052722;28;20021;-75
2021/08/28 01:56:56;;;;;;;21.98;8.48;;;;;;;;;;5053156;28;20412;-75
2021/08/28 01:59:22;;;;;;;17.08;7.40;;;;;;;;;;5052153;28;20025;-76
2021/08/28 02:01:47;;;;;;;19.75;7.78;;;;;;;;;;5052344;28;20049;-75
2021/08/28 02:04:12;;;;;;;18.65;7.90;;;;;;;;;;5052577;28;20033;-75
2021/08/28 02:06:43;;;;;;;24.70;8.07;;;;;;;;;;5034269;28;20116;-76
2021/08/28 02:09:17;;;;;;;20.45;7.10;;;;;;;;;;5052498;28;20114;-75
2021/08/28 02:11:49;;;;;;;20.08;8.43;;;;;;;;;;5052895;28;20040;-76
2021/08/28 02:14:16;;;;;;;19.92;7.43;;;;;;;;;;5052697;28;20025;-75
2021/08/28 02:16:42;;;;;;;19.55;7.82;;;;;;;;;;5052686;28;20033;-75
2021/08/28 02:19:12;;;;;;;27.77;8.02;;;;;;;;;;5052290;28;20028;-76
2021/08/28 02:21:38;;;;;;;19.50;7.90;;;;;;;;;;5052691;28;20483;-75
2021/08/28 02:24:04;;;;;;;15.05;6.82;;;;;;;;;;5054238;28;20043;-76
2021/08/28 02:26:34;;;;;;;22.15;8.05;;;;;;;;;;5056377;28;20095;-75
2021/08/28 02:29:01;;;;;;;26.50;7.82;;;;;;;;;;5056357;28;20021;-75
2021/08/28 02:31:30;;;;;;;20.55;7.95;;;;;;;;;;5055806;28;20563;-76
2021/08/28 02:33:56;;;;;;;23.55;7.63;;;;;;;;;;5056514;28;20029;-76
2021/08/28 02:36:21;;;;;;;21.60;8.35;;;;;;;;;;5056149;28;20394;-75
2021/08/28 02:38:48;;;;;;;19.10;7.95;;;;;;;;;;5055832;28;20449;-74
2021/08/28 02:41:14;;;;;;;22.13;8.65;;;;;;;;;;5055312;28;20469;-75
2021/08/28 02:43:40;;;;;;;25.55;7.55;;;;;;;;;;5036562;28;20032;-75
2021/08/28 02:46:05;;;;;;;27.30;7.78;;;;;;;;;;5046735;28;20098;-76
2021/08/28 02:48:32;;;;;;;26.92;8.38;;;;;;;;;;5055766;28;20443;-75
2021/08/28 02:50:59;;;;;;;22.67;8.15;;;;;;;;;;5055542;28;20033;-75
2021/08/28 02:53:25;;;;;;;22.67;7.85;;;;;;;;;;5055604;28;20041;-75
2021/08/28 02:55:51;;;;;;;30.10;8.85;;;;;;;;;;5056093;28;20029;-75
2021/08/28 02:58:17;;;;;;;26.30;8.48;;;;;;;;;;5055282;28;20465;-75
2021/08/28 03:00:44;;;;;;;24.83;8.32;;;;;;;;;;5055264;28;20032;-76
2021/08/28 03:03:11;;;;;;;34.15;9.10;;;;;;;;;;5055478;28;20420;-75
2021/08/28 03:05:36;;;;;;;26.05;8.38;;;;;;;;;;5055573;28;20090;-77
2021/08/28 03:08:03;;;;;;;33.22;9.07;;;;;;;;;;5054476;28;20028;-75
2021/08/28 03:10:29;;;;;;;34.33;9.27;;;;;;;;;;5055359;28;20027;-75
2021/08/28 03:12:54;;;;;;;37.88;10.13;;;;;;;;;;5055482;28;20044;-75
2021/08/28 03:15:19;;;;;;;29.98;9.13;;;;;;;;;;5055715;28;20033;-76
2021/08/28 03:17:45;;;;;;;27.27;9.38;;;;;;;;;;5055505;28;20155;-75
2021/08/28 03:20:12;;;;;;;36.95;9.65;;;;;;;;;;5054969;28;20145;-75
2021/08/28 03:22:38;;;;;;;34.97;9.65;;;;;;;;;;5055566;28;20029;-75
2021/08/28 03:25:05;;;;;;;29.83;9.82;;;;;;;;;;5055593;28;20025;-75
2021/08/28 03:27:31;;;;;;;36.85;10.05;;;;;;;;;;5054983;28;20028;-75
2021/08/28 03:29:57;;;;;;;25.52;9.35;;;;;;;;;;5054947;28;20389;-75
2021/08/28 03:32:22;;;;;;;35.47;10.38;;;;;;;;;;5054953;28;20053;-75
2021/08/28 03:34:48;;;;;;;31.05;9.15;;;;;;;;;;5054890;28;20040;-75
2021/08/28 03:37:13;;;;;;;30.15;8.77;;;;;;;;;;5055161;28;20033;-75
2021/08/28 03:39:39;;;;;;;18.83;7.63;;;;;;;;;;5055285;28;20021;-75
2021/08/28 03:42:05;;;;;;;37.25;9.18;;;;;;;;;;5054871;28;20052;-76
2021/08/28 03:44:36;;;;;;;30.98;8.80;;;;;;;;;;5053685;28;20361;-75
2021/08/28 03:47:01;;;;;;;25.25;7.80;;;;;;;;;;5054887;28;20032;-75
2021/08/28 03:49:27;;;;;;;28.45;7.88;;;;;;;;;;5054746;28;20021;-75
2021/08/28 03:51:52;;;;;;;24.08;7.80;;;;;;;;;;5054756;28;20037;-75
2021/08/28 03:54:17;;;;;;;23.00;8.15;;;;;;;;;;5054871;28;20021;-75
2021/08/28 03:56:42;;;;;;;25.95;7.80;;;;;;;;;;5054525;28;20094;-77
2021/08/28 03:59:08;;;;;;;36.88;9.82;;;;;;;;;;5054245;28;20025;-75
2021/08/28 04:01:33;;;;;;;39.38;9.25;;;;;;;;;;5054699;28;20086;-75
2021/08/28 04:03:58;;;;;;;22.40;8.50;;;;;;;;;;5054786;28;20480;-76
2021/08/28 04:06:24;;;;;;;41.85;10.02;;;;;;;;;;5054210;28;20043;-75
2021/08/28 04:08:49;;;;;;;27.73;7.90;;;;;;;;;;5054426;28;20024;-75
2021/08/28 04:11:15;;;;;;;21.00;7.70;;;;;;;;;;5054462;28;20033;-75
2021/08/28 04:13:40;;;;;;;21.98;8.10;;;;;;;;;;5054086;28;20122;-76
2021/08/28 04:16:05;;;;;;;29.52;8.60;;;;;;;;;;5054419;28;20151;-75
2021/08/28 04:18:31;;;;;;;18.63;8.35;;;;;;;;;;5054224;28;20087;-77
2021/08/28 04:20:56;;;;;;;29.75;7.97;;;;;;;;;;5054211;28;20432;-75
2021/08/28 04:23:21;;;;;;;25.02;8.68;;;;;;;;;;5053985;28;20029;-75
2021/08/28 04:25:47;;;;;;;24.33;8.80;;;;;;;;;;5054073;28;20032;-75
2021/08/28 04:28:12;;;;;;;35.63;10.35;;;;;;;;;;5053249;28;20066;-75
2021/08/28 04:30:38;;;;;;;23.98;8.18;;;;;;;;;;5053467;28;20350;-76
2021/08/28 04:33:03;;;;;;;33.45;9.23;;;;;;;;;;5054011;28;20041;-75
2021/08/28 04:35:28;;;;;;;25.38;8.57;;;;;;;;;;5054052;28;20029;-76
2021/08/28 04:37:54;;;;;;;35.03;9.15;;;;;;;;;;5053985;28;20029;-75
2021/08/28 04:40:19;;;;;;;23.50;8.68;;;;;;;;;;5053542;28;20029;-75
2021/08/28 04:42:44;;;;;;;22.52;7.90;;;;;;;;;;5053473;28;20485;-76
2021/08/28 04:45:10;;;;;;;35.20;9.02;;;;;;;;;;5053639;28;20039;-76
2021/08/28 04:47:35;;;;;;;21.65;7.93;;;;;;;;;;5053113;28;20028;-76
2021/08/28 04:50:00;;;;;;;28.70;8.55;;;;;;;;;;5053314;28;20036;-75
2021/08/28 04:52:26;;;;;;;23.95;8.23;;;;;;;;;;5053655;28;20029;-75
2021/08/28 04:54:51;;;;;;;27.30;8.70;;;;;;;;;;5053586;28;20032;-75
2021/08/28 04:57:16;;;;;;;32.47;8.30;;;;;;;;;;5053488;28;20037;-75
2021/08/28 04:59:41;;;;;;;27.20;8.75;;;;;;;;;;5053699;28;20075;-77
2021/08/28 05:02:07;;;;;;;29.65;8.63;;;;;;;;;;5053389;28;20452;-76
2021/08/28 05:04:32;;;;;;;31.60;8.77;;;;;;;;;;5053362;28;20040;-75
2021/08/28 05:06:58;;;;;;;34.95;8.95;;;;;;;;;;5052954;28;20082;-75
2021/08/28 05:09:23;;;;;;;34.95;8.52;;;;;;;;;;5052933;28;20075;-76
2021/08/28 05:11:48;;;;;;;26.27;8.43;;;;;;;;;;5053214;28;20033;-75
2021/08/28 05:14:14;;;;;;;36.30;8.80;;;;;;;;;;5052965;28;20017;-75
2021/08/28 05:16:39;;;;;;;24.92;9.10;;;;;;;;;;5053584;28;20033;-75
2021/08/28 05:19:04;;;;;;;21.85;8.57;;;;;;;;;;5053431;28;20029;-75
2021/08/28 05:21:31;;;;;;;36.60;11.48;;;;;;;;;;5053025;28;20021;-75
2021/08/28 05:23:56;;;;;;;39.40;11.00;;;;;;;;;;5053095;28;20493;-75
2021/08/28 05:26:21;;;;;;;38.13;11.68;;;;;;;;;;5053316;28;20029;-75
2021/08/28 05:28:47;;;;;;;48.05;11.77;;;;;;;;;;5053091;28;20028;-75
2021/08/28 05:31:12;;;;;;;47.13;13.73;;;;;;;;;;5052583;28;20398;-76
2021/08/28 05:33:37;;;;;;;30.60;9.93;;;;;;;;;;5052747;28;20048;-75
2021/08/28 05:36:02;;;;;;;57.58;13.95;;;;;;;;;;5053473;28;20025;-76
2021/08/28 05:38:28;;;;;;;46.55;14.13;;;;;;;;;;5053196;28;20120;-75
2021/08/28 05:40:53;;;;;;;55.75;15.85;;;;;;;;;;5053109;28;20436;-76
2021/08/28 05:43:18;;;;;;;29.73;9.65;;;;;;;;;;5052390;28;20025;-75
2021/08/28 05:45:43;;;;;;;47.45;12.75;;;;;;;;;;5053589;28;20021;-76
2021/08/28 05:48:09;;;;;;;42.78;11.65;;;;;;;;;;5052938;28;20040;-75
2021/08/28 05:50:34;;;;;;;46.85;15.43;;;;;;;;;;5052938;28;20449;-75
2021/08/28 05:52:59;;;;;;;49.72;15.35;;;;;;;;;;5052880;28;20045;-75
2021/08/28 05:55:25;;;;;;;51.17;14.50;;;;;;;;;;5052694;28;20497;-75
2021/08/28 05:57:50;;;;;;;41.13;13.95;;;;;;;;;;5052919;28;20036;-75
2021/08/28 06:00:15;;;;;;;54.47;14.00;;;;;;;;;;5055935;28;20025;-76
2021/08/28 06:02:41;;;;;;;37.63;12.27;;;;;;;;;;5056567;28;20481;-75
2021/08/28 06:05:10;;;;;;;40.45;13.98;;;;;;;;;;5056902;28;20118;-76
2021/08/28 06:07:35;;;;;;;41.75;13.73;;;;;;;;;;5056411;28;20045;-75
2021/08/28 06:10:01;;;;;;;46.83;14.20;;;;;;;;;;5056320;28;20029;-75
2021/08/28 06:12:26;;;;;;;48.67;14.20;;;;;;;;;;5056355;28;20457;-76
2021/08/28 06:14:51;;;;;;;41.70;13.68;;;;;;;;;;5056526;28;20021;-76
2021/08/28 06:17:16;;;;;;;36.90;12.90;;;;;;;;;;5048332;28;20036;-76
2021/08/28 06:19:42;;;;;;;40.33;12.98;;;;;;;;;;5054620;28;20346;-75
2021/08/28 06:22:07;;;;;;;37.95;14.27;;;;;;;;;;5056055;28;20112;-75
2021/08/28 06:24:32;;;;;;;34.60;12.13;;;;;;;;;;5040442;28;20032;-76
2021/08/28 06:26:58;;;;;;;36.72;11.77;;;;;;;;;;5055507;28;20472;-77
2021/08/28 06:29:23;;;;;;;31.50;11.23;;;;;;;;;;5055703;28;20025;-77
2021/08/28 06:31:48;;;;;;;34.30;11.98;;;;;;;;;;5055899;28;20049;-76
2021/08/28 06:34:13;;;;;;;33.50;11.85;;;;;;;;;;5056381;28;20021;-76
2021/08/28 06:36:39;;;;;;;32.22;11.68;;;;;;;;;;5056208;28;20032;-75
2021/08/28 06:39:04;;;;;;;38.40;11.50;;;;;;;;;;5056397;28;20061;-76
2021/08/28 06:41:29;;;;;;;33.58;11.02;;;;;;;;;;5052843;28;20462;-75
2021/08/28 06:43:55;;;;;;;25.73;9.38;;;;;;;;;;5046460;28;20032;-75
2021/08/28 06:46:20;;;;;;;28.92;9.77;;;;;;;;;;5054887;28;20461;-75
2021/08/28 06:48:45;;;;;;;29.67;9.63;;;;;;;;;;5055679;28;20021;-75
2021/08/28 06:51:11;;;;;;;22.60;8.43;;;;;;;;;;5055710;28;20413;-76
2021/08/28 06:53:36;;;;;;;25.13;9.20;;;;;;;;;;5055646;28;20417;-75
2021/08/28 06:56:01;;;;;;;22.60;7.68;;;;;;;;;;5055799;28;20469;-75
2021/08/28 06:58:26;;;;;;;21.80;7.10;;;;;;;;;;5055856;28;20134;-76
2021/08/28 07:00:52;;;;;;;17.25;8.18;;;;;;;;;;5055491;28;20031;-75
2021/08/28 07:03:17;;;;;;;25.38;7.70;;;;;;;;;;5055816;28;20126;-76
2021/08/28 07:05:42;;;;;;;22.80;8.45;;;;;;;;;;5055326;28;20032;-75
2021/08/28 07:08:07;;;;;;;19.83;8.13;;;;;;;;;;5054365;28;20037;-76
2021/08/28 07:10:33;;;;;;;20.23;7.93;;;;;;;;;;5054488;28;20048;-75
2021/08/28 07:12:58;;;;;;;23.48;7.57;;;;;;;;;;5054990;28;20037;-76
2021/08/28 07:15:23;;;;;;;17.23;6.90;;;;;;;;;;5055552;28;20060;-75
2021/08/28 07:17:49;;;;;;;22.58;7.30;;;;;;;;;;5055221;28;20021;-75
2021/08/28 07:20:14;;;;;;;20.05;6.45;;;;;;;;;;5055427;28;20202;-76
2021/08/28 07:22:39;;;;;;;18.02;6.97;;;;;;;;;;5054688;28;20052;-76
2021/08/28 07:25:05;;;;;;;15.20;7.03;;;;;;;;;;5054861;28;20423;-75
2021/08/28 07:27:30;;;;;;;19.92;7.43;;;;;;;;;;5055185;28;20480;-75
2021/08/28 07:29:56;;;;;;;16.02;7.97;;;;;;;;;;5054721;28;20537;-75
2021/08/28 07:32:21;;;;;;;25.60;8.00;;;;;;;;;;5055265;28;20056;-76
2021/08/28 07:34:47;;;;;;;19.10;7.05;;;;;;;;;;5053738;28;20116;-76
2021/08/28 07:37:12;;;;;;;18.30;7.90;;;;;;;;;;5055246;28;20036;-75
2021/08/28 07:39:37;;;;;;;20.50;8.88;;;;;;;;;;5037375;28;20025;-76
2021/08/28 07:42:03;;;;;;;14.02;6.75;;;;;;;;;;5054831;28;20028;-75
2021/08/28 07:44:29;;;;;;;18.02;8.35;;;;;;;;;;5054428;28;20396;-75
2021/08/28 07:46:55;;;;;;;20.48;8.63;;;;;;;;;;5055047;28;20028;-75
2021/08/28 07:49:20;;;;;;;23.65;8.95;;;;;;;;;;5054355;28;20033;-75
2021/08/28 07:51:46;;;;;;;19.02;6.90;;;;;;;;;;5054990;28;20037;-76
2021/08/28 07:54:11;;;;;;;17.83;7.22;;;;;;;;;;5054729;28;20032;-75
2021/08/28 07:56:36;;;;;;;20.98;7.70;;;;;;;;;;5054650;28;20030;-75
2021/08/28 07:59:01;;;;;;;23.20;8.52;;;;;;;;;;5054688;28;20041;-75
2021/08/28 08:01:27;;;;;;;20.67;7.95;;;;;;;;;;5053734;28;20025;-76
2021/08/28 08:03:52;;;;;;;16.80;7.22;;;;;;;;;;5054692;28;20087;-75
2021/08/28 08:06:17;;;;;;;19.27;7.00;;;;;;;;;;5054662;28;20036;-75
2021/08/28 08:08:43;;;;;;;20.23;8.07;;;;;;;;;;5054497;28;20032;-75
2021/08/28 08:11:08;;;;;;;16.58;7.65;;;;;;;;;;5054065;28;20365;-76
2021/08/28 08:13:33;;;;;;;14.13;6.53;;;;;;;;;;5053815;28;20130;-75
2021/08/28 08:15:58;;;;;;;18.20;6.68;;;;;;;;;;5054560;28;20021;-75
2021/08/28 08:18:24;;;;;;;18.63;7.18;;;;;;;;;;5054155;28;20108;-76
2021/08/28 08:20:49;;;;;;;16.13;7.47;;;;;;;;;;5054166;28;20032;-75
2021/08/28 08:23:14;;;;;;;15.00;6.47;;;;;;;;;;5053962;28;20013;-76
2021/08/28 08:25:40;;;;;;;18.27;7.10;;;;;;;;;;5053902;28;20086;-76
2021/08/28 08:28:05;;;;;;;17.10;7.10;;;;;;;;;;5053882;28;20500;-75
2021/08/28 08:30:30;;;;;;;16.60;6.60;;;;;;;;;;5054063;28;20078;-75
2021/08/28 08:32:57;;;;;;;14.55;6.18;;;;;;;;;;5054291;28;20047;-75
2021/08/28 08:35:22;;;;;;;11.95;5.30;;;;;;;;;;5053617;28;20420;-76
2021/08/28 08:37:47;;;;;;;16.77;4.95;;;;;;;;;;5053412;28;20052;-76
2021/08/28 08:40:14;;;;;;;13.65;5.18;;;;;;;;;;5054079;28;20453;-75
2021/08/28 08:42:39;;;;;;;12.18;5.07;;;;;;;;;;5053002;28;20079;-76
2021/08/28 08:45:05;;;;;;;11.48;4.82;;;;;;;;;;5053905;28;20021;-75
2021/08/28 08:47:31;;;;;;;12.10;4.60;;;;;;;;;;5053914;28;20393;-75
2021/08/28 08:49:57;;;;;;;9.25;4.32;;;;;;;;;;5053171;28;20064;-75
2021/08/28 08:52:22;;;;;;;12.95;4.35;;;;;;;;;;5053190;28;20036;-76
2021/08/28 08:54:48;;;;;;;14.77;5.30;;;;;;;;;;5054011;28;20029;-76
2021/08/28 08:57:14;;;;;;;11.93;4.82;;;;;;;;;;5053428;28;20389;-75
2021/08/28 08:59:39;;;;;;;13.85;5.88;;;;;;;;;;5053942;28;20106;-75
2021/08/28 09:02:04;;;;;;;14.77;4.90;;;;;;;;;;5053186;28;20036;-76
2021/08/28 09:04:30;;;;;;;14.80;4.85;;;;;;;;;;5053152;28;20025;-76
2021/08/28 09:06:55;;;;;;;12.57;5.13;;;;;;;;;;5052819;28;20130;-76
2021/08/28 09:09:20;;;;;;;13.98;4.63;;;;;;;;;;5052853;28;20435;-76
2021/08/28 09:12:02;;;;;;;12.70;4.88;;;;;;;;;;5052881;28;20036;-75
2021/08/28 09:14:28;;;;;;;14.45;5.10;;;;;;;;;;5053180;28;20029;-76
2021/08/28 09:16:54;;;;;;;17.45;5.32;;;;;;;;;;5052999;28;20040;-75
2021/08/28 09:19:34;;;;;;;13.55;4.95;;;;;;;;;;5053272;28;20088;-76
2021/08/28 09:22:00;;;;;;;17.00;6.05;;;;;;;;;;5050166;28;20083;-77
2021/08/28 09:24:25;;;;;;;16.40;5.53;;;;;;;;;;5051989;28;20083;-76
2021/08/28 09:26:50;;;;;;;13.15;5.18;;;;;;;;;;5052887;28;20025;-75
2021/08/28 09:29:15;;;;;;;18.33;5.65;;;;;;;;;;5052239;28;20049;-75
2021/08/28 09:31:48;;;;;;;12.55;4.78;;;;;;;;;;5052541;28;20077;-76
2021/08/28 09:34:18;;;;;;;9.02;4.95;;;;;;;;;;5052801;28;20075;-76
2021/08/28 09:36:44;;;;;;;16.20;5.47;;;;;;;;;;5053209;28;20036;-76
2021/08/28 09:39:10;;;;;;;11.82;4.90;;;;;;;;;;5053026;28;20461;-76
2021/08/28 09:41:36;;;;;;;13.40;4.78;;;;;;;;;;5053075;28;20408;-76
2021/08/28 09:44:08;;;;;;;10.73;4.88;;;;;;;;;;5052735;28;20032;-76
2021/08/28 09:46:33;;;;;;;19.50;4.57;;;;;;;;;;5052904;28;20069;-76
2021/08/28 09:49:01;;;;;;;13.10;4.65;;;;;;;;;;5052592;28;20053;-76
2021/08/28 09:51:33;;;;;;;13.55;4.50;;;;;;;;;;5052838;28;20029;-76
2021/08/28 09:53:59;;;;;;;15.05;4.72;;;;;;;;;;5053081;28;20065;-76
2021/08/28 09:56:26;;;;;;;12.30;4.68;;;;;;;;;;5052782;28;20021;-75
2021/08/28 09:58:52;;;;;;;11.63;4.47;;;;;;;;;;5052799;28;20025;-76
2021/08/28 10:01:20;;;;;;;10.57;4.70;;;;;;;;;;5052815;28;20032;-78
2021/08/28 10:03:56;;;;;;;11.93;4.43;;;;;;;;;;5053063;28;20021;-75
2021/08/28 10:06:21;;;;;;;10.75;4.70;;;;;;;;;;5052963;28;20033;-76
2021/08/28 10:08:47;;;;;;;14.20;4.93;;;;;;;;;;5052458;28;20473;-76
2021/08/28 10:11:12;;;;;;;10.48;4.28;;;;;;;;;;5051874;28;20462;-76
2021/08/28 10:13:38;;;;;;;11.73;4.68;;;;;;;;;;5052094;28;20037;-75
2021/08/28 10:16:04;;;;;;;9.68;4.65;;;;;;;;;;5052880;28;20143;-76
2021/08/28 10:18:30;;;;;;;10.88;4.85;;;;;;;;;;5052930;28;20021;-75
2021/08/28 10:20:57;;;;;;;11.10;4.88;;;;;;;;;;5052846;28;20056;-76
2021/08/28 10:23:25;;;;;;;12.35;4.65;;;;;;;;;;5052321;28;20036;-77
2021/08/28 10:25:52;;;;;;;8.93;4.78;;;;;;;;;;5052529;28;20024;-77
2021/08/28 10:28:18;;;;;;;9.63;4.47;;;;;;;;;;5052225;28;20067;-77
2021/08/28 10:30:45;;;;;;;9.40;3.78;;;;;;;;;;5051916;28;20053;-76
2021/08/28 10:33:10;;;;;;;10.77;4.38;;;;;;;;;;5052255;28;20396;-76
2021/08/28 10:35:35;;;;;;;12.93;4.00;;;;;;;;;;5052741;28;20070;-76
2021/08/28 10:38:01;;;;;;;11.95;3.80;;;;;;;;;;5052466;28;20048;-77
2021/08/28 10:40:30;;;;;;;7.15;3.53;;;;;;;;;;5052308;28;20469;-76
2021/08/28 10:42:59;;;;;;;9.38;3.25;;;;;;;;;;5051887;28;20504;-76
2021/08/28 10:45:28;;;;;;;7.22;3.47;;;;;;;;;;5053457;28;20033;-76
2021/08/28 10:47:58;;;;;;;9.45;3.63;;;;;;;;;;5055970;28;20468;-74
2021/08/28 10:50:23;;;;;;;9.50;3.33;;;;;;;;;;5056095;28;20078;-75
2021/08/28 10:52:50;;;;;;;13.65;4.35;;;;;;;;;;5055713;28;20032;-74
2021/08/28 10:55:15;;;;;;;10.60;3.80;;;;;;;;;;5056064;28;20021;-75
2021/08/28 10:57:40;;;;;;;11.77;4.75;;;;;;;;;;5056003;28;20033;-75
2021/08/28 11:00:06;;;;;;;8.80;4.32;;;;;;;;;;5056030;28;20488;-76
2021/08/28 11:02:50;;;;;;;9.70;4.35;;;;;;;;;;5055634;28;20032;-75
2021/08/28 11:05:16;;;;;;;10.23;3.90;;;;;;;;;;5035926;28;20060;-75
2021/08/28 11:07:42;;;;;;;12.73;4.18;;;;;;;;;;5018187;28;20037;-75
2021/08/28 11:10:27;;;;;;;12.07;3.67;;;;;;;;;;5051927;28;20483;-75
2021/08/28 11:12:58;;;;;;;11.50;3.83;;;;;;;;;;5055751;28;20032;-76
2021/08/28 11:15:35;;;;;;;6.53;3.03;;;;;;;;;;5055927;28;20055;-75
2021/08/28 11:18:11;;;;;;;9.05;4.28;;;;;;;;;;5055611;28;20029;-77
2021/08/28 11:20:40;;;;;;;13.40;4.43;;;;;;;;;;5055562;28;20037;-76
2021/08/28 11:23:13;;;;;;;12.05;4.18;;;;;;;;;;5054917;28;20555;-75
2021/08/28 11:25:43;;;;;;;12.00;4.00;;;;;;;;;;5054742;28;20037;-75
2021/08/28 11:28:09;;;;;;;10.82;4.32;;;;;;;;;;5037216;28;20079;-75
2021/08/28 11:30:40;;;;;;;8.23;3.42;;;;;;;;;;5054756;28;20504;-75
2021/08/28 11:33:08;;;;;;;9.23;3.72;;;;;;;;;;5043628;28;20040;-75
2021/08/28 11:35:33;;;;;;;8.75;2.90;;;;;;;;;;5054336;28;20484;-75
2021/08/28 11:38:05;;;;;;;11.43;4.03;;;;;;;;;;5055065;28;20025;-75
2021/08/28 11:40:31;;;;;;;7.90;3.97;;;;;;;;;;5054776;28;20032;-75
2021/08/28 11:42:57;;;;;;;7.72;3.45;;;;;;;;;;5055097;28;20031;-75
2021/08/28 11:45:52;;;;;;;9.63;3.70;;;;;;;;;;5055119;28;20033;-76
2021/08/28 11:48:18;;;;;;;10.30;4.15;;;;;;;;;;5033476;28;20484;-75
2021/08/28 11:50:43;;;;;;;9.75;4.38;;;;;;;;;;5055090;28;20033;-75
2021/08/28 11:53:08;;;;;;;9.93;3.38;;;;;;;;;;5054897;28;20451;-75
2021/08/28 11:55:35;;;;;;;9.73;3.53;;;;;;;;;;5054866;28;20029;-75
2021/08/28 11:58:01;;;;;;;8.48;3.70;;;;;;;;;;5054970;28;20024;-77
2021/08/28 12:00:29;;;;;;;7.57;3.30;;;;;;;;;;5054456;28;20013;-75
2021/08/28 12:02:59;;;;;;;8.20;3.78;;;;;;;;;;5054740;28;20108;-75
2021/08/28 12:05:24;;;;;;;14.93;3.80;;;;;;;;;;5054655;28;20390;-76
2021/08/28 12:07:53;;;;;;;5.78;3.35;;;;;;;;;;5054417;28;20021;-76
2021/08/28 12:10:18;;;;;;;19.48;4.57;;;;;;;;;;5054606;28;20021;-75
2021/08/28 12:12:43;;;;;;;11.13;3.67;;;;;;;;;;5054209;28;20102;-76
2021/08/28 12:15:09;;;;;;;15.32;3.85;;;;;;;;;;5054606;28;20523;-75
2021/08/28 12:17:34;;;;;;;8.15;3.95;;;;;;;;;;5054163;28;20025;-75
2021/08/28 12:20:00;;;;;;;7.85;3.20;;;;;;;;;;5053557;28;20041;-75
2021/08/28 12:22:25;;;;;;;9.05;3.88;;;;;;;;;;5053768;28;20062;-76
2021/08/28 12:24:51;;;;;;;8.35;4.15;;;;;;;;;;5054370;28;20029;-75
2021/08/28 12:27:16;;;;;;;9.10;3.40;;;;;;;;;;5054277;28;20409;-75
2021/08/28 12:29:46;;;;;;;9.27;3.70;;;;;;;;;;5054102;28;20036;-75
2021/08/28 12:32:13;;;;;;;10.75;4.40;;;;;;;;;;5052400;28;20504;-74
2021/08/28 12:34:59;;;;;;;8.80;3.63;;;;;;;;;;5053904;28;20037;-75
2021/08/28 12:37:26;;;;;;;9.93;3.92;;;;;;;;;;5038724;28;20047;-75
2021/08/28 12:40:13;;;;;;;7.40;3.25;;;;;;;;;;5054060;28;20052;-75
2021/08/28 12:42:39;;;;;;;9.52;3.47;;;;;;;;;;5053892;28;20029;-75
2021/08/28 12:45:06;;;;;;;11.55;3.92;;;;;;;;;;5053836;28;20033;-75
2021/08/28 12:47:32;;;;;;;10.90;4.22;;;;;;;;;;5052815;28;20017;-76
2021/08/28 12:49:58;;;;;;;8.48;3.47;;;;;;;;;;5053743;28;20087;-75
2021/08/28 12:52:35;;;;;;;8.77;3.28;;;;;;;;;;5053549;28;20052;-76
2021/08/28 12:55:01;;;;;;;8.90;4.03;;;;;;;;;;5053615;28;20090;-76
2021/08/28 12:57:29;;;;;;;12.02;4.15;;;;;;;;;;5053677;28;20032;-75
2021/08/28 12:59:58;;;;;;;8.10;3.45;;;;;;;;;;5053381;28;20088;-76
2021/08/28 13:02:30;;;;;;;9.02;3.53;;;;;;;;;;5053212;28;20473;-75
2021/08/28 13:04:56;;;;;;;6.60;3.53;;;;;;;;;;5053544;28;20197;-75
2021/08/28 13:07:22;;;;;;;9.70;3.17;;;;;;;;;;5053142;28;20023;-76
2021/08/28 13:09:47;;;;;;;8.25;3.55;;;;;;;;;;5053541;28;20026;-76
2021/08/28 13:12:13;;;;;;;7.90;2.75;;;;;;;;;;5053622;28;20033;-76
2021/08/28 13:14:54;;;;;;;8.23;3.78;;;;;;;;;;5053845;28;20081;-77
2021/08/28 13:17:23;;;;;;;9.35;3.63;;;;;;;;;;5041705;28;20034;-76
2021/08/28 13:19:57;;;;;;;10.63;3.28;;;;;;;;;;5049524;28;20040;-76
2021/08/28 13:22:23;;;;;;;6.55;3.03;;;;;;;;;;5052980;28;20473;-79
2021/08/28 13:24:49;;;;;;;10.77;3.05;;;;;;;;;;5053040;28;20162;-77
2021/08/28 13:27:14;;;;;;;7.05;3.33;;;;;;;;;;5053684;28;20021;-76
2021/08/28 13:29:41;;;;;;;7.30;3.22;;;;;;;;;;5052934;28;20017;-76
2021/08/28 13:32:06;;;;;;;9.15;3.00;;;;;;;;;;5053042;28;20049;-76
2021/08/28 13:34:36;;;;;;;6.72;3.55;;;;;;;;;;5053247;28;20024;-76
2021/08/28 13:37:02;;;;;;;8.18;3.13;;;;;;;;;;5053465;28;20025;-76
2021/08/28 13:39:28;;;;;;;5.80;2.90;;;;;;;;;;5032984;28;20033;-77
2021/08/28 13:41:53;;;;;;;10.70;3.22;;;;;;;;;;5039330;28;20438;-76
2021/08/28 13:44:19;;;;;;;10.00;3.60;;;;;;;;;;5052539;28;20453;-78
2021/08/28 13:46:44;;;;;;;7.35;2.78;;;;;;;;;;5053045;28;20154;-76
2021/08/28 13:49:09;;;;;;;6.55;2.92;;;;;;;;;;5053181;28;20028;-76
2021/08/28 13:51:34;;;;;;;7.28;3.13;;;;;;;;;;5053256;28;20373;-76
2021/08/28 13:54:00;;;;;;;6.18;2.83;;;;;;;;;;5052834;28;20037;-76
2021/08/28 13:56:25;;;;;;;10.77;2.90;;;;;;;;;;5052879;28;20024;-77
2021/08/28 13:58:50;;;;;;;5.60;3.22;;;;;;;;;;5052784;28;20032;-76
2021/08/28 14:01:15;;;;;;;7.40;3.55;;;;;;;;;;5052204;28;20120;-76
2021/08/28 14:03:41;;;;;;;7.00;3.20;;;;;;;;;;5053024;28;20024;-76
2021/08/28 14:06:06;;;;;;;7.57;2.80;;;;;;;;;;5052737;28;20546;-76
2021/08/28 14:08:31;;;;;;;10.52;3.85;;;;;;;;;;5051184;28;20037;-77
2021/08/28 14:10:57;;;;;;;7.05;3.38;;;;;;;;;;5051459;28;20069;-75
2021/08/28 14:13:22;;;;;;;7.32;2.90;;;;;;;;;;5051550;28;20052;-75
2021/08/28 14:15:47;;;;;;;7.15;2.70;;;;;;;;;;5052350;28;20032;-76
2021/08/28 14:18:12;;;;;;;6.32;2.83;;;;;;;;;;5052803;28;20013;-75
2021/08/28 14:20:38;;;;;;;6.63;2.97;;;;;;;;;;5055267;28;20029;-76
2021/08/28 14:23:03;;;;;;;8.77;3.03;;;;;;;;;;5056699;28;20119;-76
2021/08/28 14:25:29;;;;;;;9.40;3.30;;;;;;;;;;5056600;28;20017;-75
2021/08/28 14:27:54;;;;;;;9.90;2.90;;;;;;;;;;5056641;28;20074;-76